Terminal Aerodrome Forecast
Issued by NWS Blacksburg, VA

Home | Current Version | Previous Version | Text Only | Print | Product List | Glossary On
Versions: 1 2 3 4 5 6 7 8 9 10 11 12 13 14 15 16 17 18 19 20 21 22 23 24 25
000
FTUS41 KRNK 282331
TAFROA
TAF
KROA 282331Z 2900/2924 30010KT P6SM FEW050 FEW250
     FM290800 04003KT P6SM SCT030
     FM291500 10004KT P6SM SCT030
     FM291800 13006KT P6SM SCT050=

USA.gov is the U.S. government's official web portal to all federal, state and local government web resources and services.